Churchill Airport
CYYQ : now visible

Airfield :











YOU CAN JOIN US ON...

 
LOGIN :

Register | Disclaimer

   EN    FR    IT 

 









Legend :    VFR   Marginal VFR   IFR   Intensive IFR   Very Intensive IFR
Visi :
Ceiling :
>= 8 km
>= 3000ft
5 to 8 km
1000 to 3000 ft
1500m to 5 km
500 to 1000 ft
800 to 1500m
200 to 500 ft
< 800m
< 200 ft
Symbols :   Thunderstorms  Fog  Heavy snow  Heavy precipitations  Wind > 20 kt






- Airport Elevation : 94 ft
- IATA code : YYQ


CYYQ - Churchill

CURRENT METAR :
  • 170800Z 31022G31KT 3SM IC BLSN VV011 M28/M32 A2977 RMK BLSN8 VIS VRB 2-4 SLP088

EXPIRED METARs :
  • 170700Z 31021G31KT 3SM IC BLSN SKC M29/M32 A2975 RMK BLSN6 SLP080
  • 170600Z 31022G29KT 3SM IC BLSN SKC M29/M33 A2974 RMK BLSN6 VIS VRB 2-4 SLP079
  • 170500Z 31022G29KT 3SM IC BLSN SKC M29/M33 A2973 RMK BLSN6 VIS VRB 2-4 SLP074

TAF TAF CYYQ
Valid from the 17 at 06:00 until the 18 at 06:00 UTC


170540Z 1706/1806 31022G32KT 5SM IC BLSN SCT025
TEMPO 1706/1710 2SM IC BLSN
FM171000 32018G28KT P6SM SKC
TEMPO 1710/1718 5SM IC BLSN FEW025
BECMG 1713/1715 32015KT
FM171800 32015KT P6SM SKC RMK NXT FCST BY 171200Z
CZWG FIR / North America



MET'MAP, your aeronautical weather chart ! - Copyright ORBIFLY December 2007 - Disclaimer

ORBIFLY MET'MAP TEAM :

Programming & Development : Alexandra Zaïnal
Concept & original design : Baudouin d'Aumeries
Assistance for programming : Marc-Olivier Méhu
Technical & hardware support : Manuel Goepfert

Contact : metmap@orbifly.com




SOURCES & CREDITS :

   NOAA       Earth
Advisory